Portada
METAR-TAF:

METAR-TAF

Aeropuertos :

Aeropuerto Internacional Rarotonga

Rarotonga, Islas Cook

latitud: 21-12S, longitud: 159-49W, altitud: 7 m

Observación

El informe se hizo hace 10 horas y 49 minutos, a las 05:00 UTC
Viento 3 kt del este-sureste
Temperatura 21°C
Humedad 73%
Presión 1016 hPa
Visibilidad 10 km o más
Escasas nubes a una altura de 2300 ft

METAR: NCRG 210500Z 12003KT 9999 FEW023 21/16 Q1016

Hora: 05:49 (15:49 UTC)

Pronóstico

El informe se hizo hace 16 horas y 39 minutos, a las 23:10 UTC
Pronóstico válido del 21 a las 00 UTC al 21 a las 24 UTC
Viento 10 kt del sur-sureste
Visibilidad 10 km o más
Escasas nubes a una altura de 2000 ft
Probabilidad 40% :
Temporalmente
del 21 a las 00 UTC al 21 a las 06 UTC
Viento 10 kt del sureste con ráfagas de 25 kt

TAF: NCRG 202310Z 2100/2124 15010KT 9999 FEW020 PROB40 TEMPO 2100/2106 14010G25KT

Observaciones y pronósticos meteorológicos de más de 4000 aeropuertos (mensajes METAR y TAF).

Los puntos amarillos y rojos representan las estaciones disponibles.

Ponga el ratón en el punto deseado para ver el nombre de la estación.

Haga clic para ver las observaciones y los pronósticos meteorológicos.

Para cambiar el mapa : haga clic en los botones verdes con una cruz de color negro para hacer un zoom, en el botón verde con un guión para alejar o en las flechas verdes para mapas adyacentes.


METAR-TAF: